Time;durP1;ratioP1;P1;durP2;ratioP2;P2;SDS_P1;SDS_P2;PMS_P1;PMS_P2;Temp;Humidity;BMP_temperature;BMP_pressure;BME280_temperature;BME280_humidity;BME280_pressure;Samples;Min_cycle;Max_cycle;Signal;HPM_P1;HPM_P2
2021/05/16 00:02:21;;;;;;;9.35;6.22;;;;;;;10.38;80.53;99459.36;1749237;82;21091;-67
2021/05/16 00:04:47;;;;;;;12.03;6.87;;;;;;;10.43;80.52;99452.13;1736427;82;21540;-67
2021/05/16 00:07:14;;;;;;;10.68;6.10;;;;;;;10.46;80.53;99455.23;1719112;83;37888;-67
2021/05/16 00:09:40;;;;;;;13.80;6.10;;;;;;;10.48;80.52;99456.39;1719610;83;20928;-67
2021/05/16 00:12:07;;;;;;;12.73;6.58;;;;;;;10.51;80.56;99452.84;1719607;83;21185;-67
2021/05/16 00:14:34;;;;;;;9.13;5.60;;;;;;;10.53;80.54;99450.79;1719396;83;21048;-67
2021/05/16 00:17:00;;;;;;;9.48;6.47;;;;;;;10.57;80.53;99453.89;1719433;83;21012;-67
2021/05/16 00:19:26;;;;;;;13.75;6.62;;;;;;;10.48;80.52;99437.73;1719452;83;20866;-67
2021/05/16 00:21:52;;;;;;;11.83;7.67;;;;;;;10.48;80.52;99437.73;1719632;83;20909;-67
2021/05/16 00:24:18;;;;;;;15.98;9.20;;;;;;;10.59;80.56;99452.37;1719513;83;21106;-67
2021/05/16 00:26:44;;;;;;;15.23;9.43;;;;;;;10.58;80.54;99452.05;1721594;82;21044;-67
2021/05/16 00:29:10;;;;;;;15.78;8.48;;;;;;;10.61;80.55;99451.16;1719568;83;21034;-67
2021/05/16 00:31:36;;;;;;;13.10;9.88;;;;;;;10.65;80.58;99436.94;1719647;82;20897;-67
2021/05/16 00:34:02;;;;;;;15.45;11.45;;;;;;;10.63;80.59;99429.62;1719511;83;20921;-67
2021/05/16 00:36:28;;;;;;;16.02;10.08;;;;;;;10.60;80.58;99434.02;1737713;82;21812;-67
2021/05/16 00:38:56;;;;;;;16.32;11.20;;;;;;;10.62;80.59;99429.33;1749398;82;21542;-67
2021/05/16 00:41:22;;;;;;;14.25;9.05;;;;;;;10.62;80.62;99434.66;1749348;82;21061;-67
2021/05/16 00:43:48;;;;;;;15.68;9.40;;;;;;;10.61;80.62;99423.67;1749460;82;21120;-67
2021/05/16 00:46:14;;;;;;;17.32;9.00;;;;;;;10.60;80.64;99428.68;1749363;82;21505;-67
2021/05/16 00:48:40;;;;;;;13.75;9.35;;;;;;;10.60;80.66;99428.68;1749345;82;21114;-67
2021/05/16 00:51:06;;;;;;;12.07;8.45;;;;;;;10.60;80.66;99423.34;1749194;82;21440;-67
2021/05/16 00:53:34;;;;;;;16.07;9.23;;;;;;;10.61;80.69;99418.34;1747442;81;21087;-67
2021/05/16 00:56:00;;;;;;;14.55;8.73;;;;;;;10.62;80.70;99418.66;1719541;82;21060;-67
2021/05/16 00:58:26;;;;;;;16.05;9.30;;;;;;;10.61;80.72;99413.01;1719663;83;21631;-67
2021/05/16 01:00:52;;;;;;;15.20;8.30;;;;;;;10.60;80.75;99410.02;1719851;83;21113;-67
2021/05/16 01:03:20;;;;;;;18.30;11.25;;;;;;;10.60;80.83;99402.02;1719556;83;20965;-67
2021/05/16 01:05:46;;;;;;;17.37;10.20;;;;;;;10.60;80.83;99402.02;1719664;82;21024;-67
2021/05/16 01:08:12;;;;;;;13.03;8.93;;;;;;;10.62;80.82;99403.49;1719637;83;21128;-67
2021/05/16 01:10:38;;;;;;;13.38;9.45;;;;;;;10.64;80.83;99397.95;1719710;83;21020;-67
2021/05/16 01:13:05;;;;;;;18.50;9.95;;;;;;;10.64;80.88;99395.28;1719676;83;21131;-67
2021/05/16 01:15:32;;;;;;;16.02;8.55;;;;;;;10.66;80.88;99394.59;1719580;83;21040;-67
2021/05/16 01:17:58;;;;;;;15.32;9.15;;;;;;;10.67;80.93;99398.89;1731822;81;21571;-67
2021/05/16 01:20:33;;;;;;;12.18;8.35;;;;;;;10.69;80.94;99396.88;1735301;82;21039;-67
2021/05/16 01:23:06;;;;;;;13.03;8.10;;;;;;;10.69;80.96;99395.53;1751273;81;21115;-67
2021/05/16 01:25:35;;;;;;;10.38;7.05;;;;;;;10.69;80.99;99399.03;1763735;81;21068;-67
2021/05/16 01:28:01;;;;;;;13.07;7.90;;;;;;;10.67;81.02;99397.05;1766038;81;21043;-67
2021/05/16 01:30:27;;;;;;;12.82;7.55;;;;;;;10.67;81.04;99395.72;1763843;81;21173;-67
2021/05/16 01:32:53;;;;;;;14.90;8.63;;;;;;;10.68;81.03;99396.55;1765874;81;21047;-67
2021/05/16 01:35:20;;;;;;;13.62;8.60;;;;;;;10.65;81.04;99387.10;1765859;81;21055;-67
2021/05/16 01:37:47;;;;;;;14.90;9.45;;;;;;;10.65;81.08;99383.61;1765904;81;21586;-67
2021/05/16 01:40:14;;;;;;;12.82;8.03;;;;;;;10.65;81.10;99392.44;1765988;81;20997;-67
2021/05/16 01:42:46;;;;;;;13.45;7.25;;;;;;;10.66;81.14;99387.93;1765930;81;21098;-67
2021/05/16 01:45:12;;;;;;;15.75;7.50;;;;;;;10.65;81.15;99388.94;1736219;82;21082;-67
2021/05/16 01:47:37;;;;;;;11.80;7.03;;;;;;;10.65;81.17;99391.61;1737038;82;21050;-67
2021/05/16 01:50:07;;;;;;;11.57;7.12;;;;;;;10.63;81.20;99390.96;1765845;81;21114;-68
2021/05/16 01:52:33;;;;;;;10.93;7.42;;;;;;;10.63;81.20;99388.30;1765909;81;21027;-67
2021/05/16 01:54:59;;;;;;;12.98;8.93;;;;;;;10.61;81.24;99383.68;1765947;81;20916;-67
2021/05/16 01:57:26;;;;;;;17.30;8.73;;;;;;;10.62;81.23;99386.67;1766015;81;21028;-67
2021/05/16 01:59:53;;;;;;;9.98;7.10;;;;;;;10.62;81.26;99386.67;1737737;81;21079;-67
2021/05/16 02:02:19;;;;;;;11.70;8.20;;;;;;;10.61;81.28;99385.84;1737230;81;21716;-67
2021/05/16 02:04:45;;;;;;;9.18;5.92;;;;;;;10.59;81.28;99386.52;1763556;81;21050;-67
2021/05/16 02:07:11;;;;;;;10.50;6.22;;;;;;;10.58;81.32;99376.08;1765947;81;21047;-67
2021/05/16 02:09:37;;;;;;;12.30;7.90;;;;;;;10.59;81.33;99376.40;1765848;81;21024;-67
2021/05/16 02:12:04;;;;;;;12.37;6.92;;;;;;;10.58;81.37;99378.23;1765673;81;21047;-67
2021/05/16 02:14:31;;;;;;;7.47;6.08;;;;;;;10.59;81.37;99385.20;1765968;81;21657;-67
2021/05/16 02:16:58;;;;;;;11.88;6.20;;;;;;;10.58;81.40;99384.08;1765375;81;21036;-67
2021/05/16 02:19:25;;;;;;;10.75;6.80;;;;;;;10.59;81.42;99385.20;1765850;81;21027;-67
2021/05/16 02:21:51;;;;;;;9.23;6.05;;;;;;;10.60;81.45;99380.19;1765878;81;21552;-67
2021/05/16 02:24:17;;;;;;;15.10;6.25;;;;;;;10.61;81.47;99378.34;1765827;80;21032;-67
2021/05/16 02:26:43;;;;;;;10.85;6.85;;;;;;;10.66;81.48;99377.27;1751572;81;21924;-67
2021/05/16 02:29:09;;;;;;;10.10;6.22;;;;;;;10.68;81.50;99376.05;1735313;82;20889;-67
2021/05/16 02:31:35;;;;;;;10.35;7.17;;;;;;;10.67;81.50;99370.89;1735565;82;21047;-67
2021/05/16 02:34:02;;;;;;;13.10;8.23;;;;;;;10.67;81.52;99372.22;1735160;82;21047;-67
2021/05/16 02:36:28;;;;;;;12.10;8.18;;;;;;;10.66;81.55;99373.27;1735667;82;21035;-67
2021/05/16 02:38:54;;;;;;;12.75;8.05;;;;;;;10.63;81.56;99372.30;1735399;82;21110;-67
2021/05/16 02:41:20;;;;;;;12.25;8.40;;;;;;;10.60;81.57;99375.36;1735387;82;21084;-67
2021/05/16 02:43:46;;;;;;;12.82;8.40;;;;;;;10.57;81.61;99375.75;1735442;82;20925;-67
2021/05/16 02:46:12;;;;;;;12.25;7.58;;;;;;;10.57;81.64;99377.08;1735452;82;21014;-67
2021/05/16 02:48:38;;;;;;;14.90;7.22;;;;;;;10.57;81.68;99377.91;1735318;82;20900;-67
2021/05/16 02:51:04;;;;;;;11.90;6.92;;;;;;;10.59;81.72;99380.39;1735411;82;21064;-67
2021/05/16 02:53:32;;;;;;;9.00;5.97;;;;;;;10.65;81.73;99389.77;1735658;81;21589;-67
2021/05/16 02:55:58;;;;;;;8.08;5.28;;;;;;;10.67;81.75;99387.72;1735241;82;21067;-67
2021/05/16 02:58:24;;;;;;;9.08;6.37;;;;;;;10.66;81.77;99385.27;1735443;82;20892;-67
2021/05/16 03:00:50;;;;;;;11.12;6.45;;;;;;;10.66;81.78;99389.27;1735462;82;21724;-67
2021/05/16 03:03:16;;;;;;;10.98;5.78;;;;;;;10.65;81.79;99390.27;1736091;81;21258;-67
2021/05/16 03:05:42;;;;;;;14.98;9.85;;;;;;;10.64;81.82;99385.95;1735633;81;21578;-67
2021/05/16 03:08:08;;;;;;;12.60;6.95;;;;;;;10.65;81.81;99394.27;1736182;81;20905;-67
2021/05/16 03:10:34;;;;;;;10.90;7.08;;;;;;;10.62;81.83;99394.67;1735464;82;21630;-67
2021/05/16 03:13:00;;;;;;;11.93;8.00;;;;;;;10.61;81.84;99394.34;1735307;82;21099;-67
2021/05/16 03:15:26;;;;;;;8.50;5.45;;;;;;;10.60;81.88;99388.69;1735576;82;21729;-67
2021/05/16 03:17:52;;;;;;;7.58;4.97;;;;;;;10.59;81.89;99392.39;1725369;82;20854;-67
2021/05/16 03:20:18;;;;;;;6.72;5.28;;;;;;;10.60;81.90;99395.35;1713980;83;21595;-67
2021/05/16 03:22:44;;;;;;;7.85;4.80;;;;;;;10.62;81.93;99394.67;1713959;83;20858;-67
2021/05/16 03:25:12;;;;;;;9.35;6.40;;;;;;;10.63;81.94;99396.30;1713994;83;21591;-67
2021/05/16 03:27:38;;;;;;;13.48;7.22;;;;;;;10.66;81.96;99393.27;1713814;83;21200;-67
2021/05/16 03:30:07;;;;;;;13.32;6.97;;;;;;;10.65;81.97;99390.27;1713861;83;21080;-67
2021/05/16 03:32:34;;;;;;;7.42;5.40;;;;;;;10.64;81.97;99391.28;1713900;83;21348;-67
2021/05/16 03:35:00;;;;;;;8.15;5.35;;;;;;;10.65;82.01;99399.61;1716455;82;21509;-67
2021/05/16 03:37:26;;;;;;;6.67;5.10;;;;;;;10.66;82.02;99397.27;1743605;82;20992;-67
2021/05/16 03:39:52;;;;;;;10.30;5.50;;;;;;;10.67;82.05;99397.55;1743646;82;21412;-67
2021/05/16 03:42:18;;;;;;;5.72;4.97;;;;;;;10.68;82.04;99399.21;1743381;82;20949;-67
2021/05/16 03:44:44;;;;;;;8.18;4.97;;;;;;;10.69;82.04;99407.03;1743605;82;20980;-67
2021/05/16 03:47:10;;;;;;;7.55;4.87;;;;;;;10.70;82.07;99405.98;1743494;82;20862;-67
2021/05/16 03:49:36;;;;;;;8.65;5.10;;;;;;;10.74;82.08;99406.42;1743613;82;20988;-67
2021/05/16 03:52:02;;;;;;;7.10;4.50;;;;;;;10.75;82.11;99406.24;1743263;82;21011;-67
2021/05/16 03:54:28;;;;;;;7.85;5.05;;;;;;;10.77;82.11;99406.86;1743558;82;21667;-67
2021/05/16 03:56:56;;;;;;;6.45;4.85;;;;;;;10.80;82.13;99407.00;1743297;82;20961;-67
2021/05/16 03:59:22;;;;;;;11.50;5.37;;;;;;;10.85;82.14;99407.22;1743483;81;21076;-67
2021/05/16 04:01:49;;;;;;;8.88;5.05;;;;;;;10.89;82.17;99407.14;1736802;82;21663;-67
2021/05/16 04:04:15;;;;;;;9.18;4.83;;;;;;;10.89;82.18;99401.81;1713865;83;21208;-68
2021/05/16 04:06:41;;;;;;;8.03;4.65;;;;;;;10.93;82.19;99401.73;1713869;83;20870;-67
2021/05/16 04:09:07;;;;;;;5.40;4.78;;;;;;;10.89;82.20;99384.47;1713846;83;21059;-67
2021/05/16 04:11:33;;;;;;;10.03;5.40;;;;;;;10.98;82.22;99397.95;1713984;83;20894;-67
2021/05/16 04:13:59;;;;;;;7.95;4.67;;;;;;;11.06;82.23;99394.30;1713708;83;21565;-67
2021/05/16 04:16:25;;;;;;;8.13;5.17;;;;;;;11.13;82.24;99399.98;1714026;83;21026;-67
2021/05/16 04:18:51;;;;;;;5.62;4.53;;;;;;;11.22;82.25;99399.33;1729138;82;20955;-67
2021/05/16 04:21:17;;;;;;;6.58;4.55;;;;;;;11.29;82.22;99398.34;1735215;82;20917;-67
2021/05/16 04:23:44;;;;;;;8.53;5.12;;;;;;;11.41;82.27;99393.23;1735452;81;20912;-67
2021/05/16 04:26:10;;;;;;;9.63;4.85;;;;;;;11.66;82.23;99397.52;1735386;82;21044;-68
2021/05/16 04:28:36;;;;;;;7.40;4.08;;;;;;;12.12;82.39;99390.96;1735321;82;21109;-67
2021/05/16 04:31:02;;;;;;;10.93;4.47;;;;;;;13.18;82.47;99392.51;1735815;81;21012;-68
2021/05/16 04:33:28;;;;;;;5.10;3.75;;;;;;;14.24;82.16;99390.89;1735652;82;21070;-68
2021/05/16 04:35:55;;;;;;;7.58;4.00;;;;;;;14.98;81.55;99382.81;1735426;82;20881;-68
2021/05/16 04:38:21;;;;;;;4.85;4.12;;;;;;;15.96;80.89;99376.20;1735534;82;21027;-68
2021/05/16 04:40:47;;;;;;;3.83;3.37;;;;;;;15.89;79.92;99372.78;1735439;82;21166;-68
2021/05/16 04:43:14;;;;;;;4.95;3.47;;;;;;;15.18;79.78;99378.03;1735679;81;21019;-68
2021/05/16 04:45:40;;;;;;;4.35;3.20;;;;;;;14.76;79.92;99382.93;1744853;81;21043;-68
2021/05/16 04:48:07;;;;;;;7.22;3.55;;;;;;;14.48;79.92;99380.20;1765905;81;21070;-68
2021/05/16 04:50:33;;;;;;;4.33;3.05;;;;;;;14.66;79.84;99372.70;1766003;81;21016;-68
2021/05/16 04:52:59;;;;;;;6.92;3.70;;;;;;;14.58;79.73;99378.86;1765919;81;21568;-68
2021/05/16 04:55:25;;;;;;;3.92;3.45;;;;;;;14.41;79.74;99374.59;1765928;81;20888;-68
2021/05/16 04:57:51;;;;;;;4.83;3.33;;;;;;;14.43;79.71;99380.02;1756576;81;21055;-68
2021/05/16 05:00:18;;;;;;;5.85;4.15;;;;;;;15.02;79.33;99378.64;1735421;82;20924;-68
2021/05/16 05:02:46;;;;;;;4.80;3.35;;;;;;;15.57;79.07;99382.64;1741802;81;21032;-68
2021/05/16 05:05:13;;;;;;;5.65;3.40;;;;;;;15.53;78.90;99378.77;1731629;81;22794;-68
2021/05/16 05:07:39;;;;;;;4.20;3.02;;;;;;;15.31;78.96;99376.52;1770600;79;21075;-68
2021/05/16 05:10:07;;;;;;;4.78;3.25;;;;;;;15.10;78.67;99381.00;1754672;79;21040;-68
2021/05/16 05:12:33;;;;;;;6.83;3.00;;;;;;;14.45;78.20;99352.98;1725989;82;21062;-68
2021/05/16 05:14:59;;;;;;;5.05;3.52;;;;;;;14.45;78.20;99352.98;1707517;84;20915;-68
2021/05/16 05:17:25;;;;;;;4.30;3.40;;;;;;;14.34;78.24;99371.14;1723071;82;21641;-68
2021/05/16 05:19:50;;;;;;;4.78;3.05;;;;;;;14.17;78.17;99373.52;1736862;82;20868;-68
2021/05/16 05:22:16;;;;;;;5.67;3.15;;;;;;;14.13;78.03;99379.01;1737028;81;20990;-68
2021/05/16 05:24:43;;;;;;;5.83;4.08;;;;;;;14.18;77.93;99376.48;1737106;82;20892;-68
2021/05/16 05:27:09;;;;;;;7.50;3.25;;;;;;;14.40;77.76;99374.28;1737086;82;21637;-68
2021/05/16 05:29:35;;;;;;;6.35;3.95;;;;;;;14.43;77.56;99378.69;1736446;82;21537;-68
2021/05/16 05:32:01;;;;;;;4.28;2.70;;;;;;;14.52;77.56;99370.36;1736998;82;21046;-68
2021/05/16 05:34:27;;;;;;;5.03;2.77;;;;;;;14.47;77.50;99377.20;1747320;81;20996;-68
2021/05/16 05:36:53;;;;;;;4.08;2.65;;;;;;;14.62;77.45;99372.84;1735591;82;21063;-68
2021/05/16 05:39:20;;;;;;;4.08;2.67;;;;;;;14.63;77.22;99373.67;1735437;82;21688;-68
2021/05/16 05:41:46;;;;;;;4.00;2.47;;;;;;;14.55;77.12;99376.63;1735469;82;21067;-68
2021/05/16 05:44:13;;;;;;;4.12;2.42;;;;;;;14.46;77.05;99381.47;1735338;82;21040;-68
2021/05/16 05:46:39;;;;;;;4.80;3.05;;;;;;;14.35;77.03;99380.32;1735550;82;21052;-68
2021/05/16 05:49:05;;;;;;;3.95;2.50;;;;;;;14.48;77.01;99380.20;1735438;82;20912;-68
2021/05/16 05:51:31;;;;;;;3.05;2.30;;;;;;;14.53;76.87;99386.77;1735640;82;21015;-68
2021/05/16 05:53:57;;;;;;;4.22;2.67;;;;;;;14.43;76.78;99385.39;1735436;82;21230;-68
2021/05/16 05:56:22;;;;;;;3.83;2.30;;;;;;;14.32;76.70;99386.61;1735391;82;20952;-68
2021/05/16 05:58:48;;;;;;;4.97;2.52;;;;;;;14.35;76.59;99379.49;1760002;81;20980;-68
2021/05/16 06:01:15;;;;;;;4.90;2.67;;;;;;;14.34;76.47;99380.52;1762508;81;20908;-68
2021/05/16 06:03:41;;;;;;;5.33;2.98;;;;;;;14.30;76.35;99384.13;1735539;82;21051;-68
2021/05/16 06:06:07;;;;;;;3.60;2.10;;;;;;;14.26;76.30;99385.61;1735265;82;21801;-68
2021/05/16 06:08:33;;;;;;;4.30;2.62;;;;;;;14.18;76.24;99389.89;1735378;82;21322;-68
2021/05/16 06:10:59;;;;;;;2.92;2.20;;;;;;;14.07;76.24;99389.27;1735419;82;20916;-68
2021/05/16 06:13:25;;;;;;;4.10;2.77;;;;;;;14.08;76.17;99386.88;1736554;81;21640;-68
2021/05/16 06:15:51;;;;;;;5.12;3.33;;;;;;;13.99;76.09;99390.87;1739367;79;20921;-68
2021/05/16 06:18:17;;;;;;;4.95;2.62;;;;;;;13.89;76.00;99393.20;1762351;81;21714;-68
2021/05/16 06:20:43;;;;;;;3.58;2.72;;;;;;;13.85;75.98;99405.39;1746883;81;21032;-68
2021/05/16 06:23:12;;;;;;;5.17;2.50;;;;;;;13.75;75.95;99405.04;1742825;81;21671;-68
2021/05/16 06:25:38;;;;;;;5.15;2.67;;;;;;;13.69;75.94;99405.87;1748412;81;21058;-68
2021/05/16 06:28:03;;;;;;;5.35;2.42;;;;;;;13.60;75.92;99402.63;1753116;81;21006;-68
2021/05/16 06:30:30;;;;;;;4.58;1.85;;;;;;;13.50;75.91;99404.95;1723324;83;21114;-68
2021/05/16 06:32:56;;;;;;;5.37;2.37;;;;;;;13.39;75.91;99409.12;1738874;81;21053;-68
2021/05/16 06:35:22;;;;;;;5.00;2.35;;;;;;;13.35;75.89;99411.91;1738501;81;21595;-68
2021/05/16 06:37:48;;;;;;;3.83;2.20;;;;;;;13.29;75.83;99407.92;1746133;81;20893;-68
2021/05/16 06:40:14;;;;;;;6.42;2.55;;;;;;;13.10;75.76;99409.62;1743358;81;21706;-68
2021/05/16 06:42:42;;;;;;;4.97;2.70;;;;;;;12.98;75.75;99415.30;1745963;81;21633;-67
2021/05/16 06:45:09;;;;;;;10.70;4.35;;;;;;;12.93;75.75;99421.78;1745486;81;21070;-68
2021/05/16 06:47:35;;;;;;;5.85;3.37;;;;;;;12.93;75.70;99424.45;1746938;81;21047;-67
2021/05/16 06:50:01;;;;;;;10.50;5.00;;;;;;;12.90;75.70;99431.06;1742134;81;20879;-67
2021/05/16 06:52:27;;;;;;;3.58;3.17;;;;;;;12.88;75.69;99428.26;1741037;81;20873;-67
2021/05/16 06:54:53;;;;;;;4.03;2.58;;;;;;;12.83;75.69;99421.39;1750962;81;21035;-68
2021/05/16 06:57:19;;;;;;;5.95;3.75;;;;;;;12.77;75.72;99427.58;1739537;81;20900;-67
2021/05/16 06:59:45;;;;;;;4.00;3.15;;;;;;;12.79;75.70;99428.19;1743351;81;20976;-67
2021/05/16 07:02:11;;;;;;;5.87;3.00;;;;;;;12.76;75.66;99429.43;1749663;81;21089;-68
2021/05/16 07:04:37;;;;;;;4.25;2.75;;;;;;;12.69;75.67;99435.81;1750992;81;21000;-67
2021/05/16 07:07:03;;;;;;;3.67;3.08;;;;;;;12.70;75.72;99433.45;1737676;81;21173;-67
2021/05/16 07:09:29;;;;;;;3.60;2.72;;;;;;;12.66;75.70;99423.68;1737108;81;21111;-67
2021/05/16 07:11:55;;;;;;;4.70;3.17;;;;;;;12.58;75.68;99428.41;1745036;81;20998;-67
2021/05/16 07:14:21;;;;;;;6.53;3.70;;;;;;;12.51;75.71;99433.25;1749010;81;20937;-67
2021/05/16 07:16:47;;;;;;;5.40;3.47;;;;;;;12.42;75.72;99430.45;1749839;81;20980;-68
2021/05/16 07:19:14;;;;;;;4.90;3.30;;;;;;;12.40;75.74;99432.52;1730579;81;21704;-67
2021/05/16 07:21:40;;;;;;;6.40;3.58;;;;;;;12.40;75.79;99433.86;1705968;82;21082;-67
2021/05/16 07:24:11;;;;;;;8.20;3.55;;;;;;;12.34;75.79;99433.35;1716989;81;20902;-68
2021/05/16 07:26:37;;;;;;;8.38;3.58;;;;;;;12.31;75.78;99436.44;1740010;82;21045;-67
2021/05/16 07:29:03;;;;;;;12.63;4.60;;;;;;;12.34;75.80;99436.53;1705678;84;21088;-68
2021/05/16 07:31:29;;;;;;;7.12;4.12;;;;;;;12.40;75.79;99440.55;1708176;84;21632;-68
2021/05/16 07:33:55;;;;;;;3.45;3.15;;;;;;;12.49;75.82;99435.80;1677914;84;21041;-67
2021/05/16 07:36:21;;;;;;;3.83;2.92;;;;;;;12.48;75.77;99434.17;1707989;84;20934;-67
2021/05/16 07:38:47;;;;;;;4.72;3.33;;;;;;;12.45;75.77;99438.06;1708181;84;21615;-67
2021/05/16 07:41:13;;;;;;;5.20;2.75;;;;;;;12.47;75.80;99445.38;1707915;84;20894;-67
2021/05/16 07:43:39;;;;;;;4.12;2.90;;;;;;;12.58;75.82;99441.78;1708259;84;21560;-67
2021/05/16 07:46:05;;;;;;;5.95;3.00;;;;;;;12.60;75.79;99434.36;1708023;84;20906;-67
2021/05/16 07:48:32;;;;;;;3.50;2.65;;;;;;;12.62;75.78;99434.48;1715496;82;20909;-67
2021/05/16 07:50:59;;;;;;;11.18;3.25;;;;;;;12.63;75.75;99439.32;1743447;82;21569;-67
2021/05/16 07:53:25;;;;;;;4.65;3.52;;;;;;;12.68;75.69;99442.18;1740642;82;21070;-67
2021/05/16 07:55:51;;;;;;;5.15;3.10;;;;;;;12.75;75.67;99445.67;1741136;82;21058;-68
2021/05/16 07:58:18;;;;;;;5.37;3.12;;;;;;;12.87;75.66;99448.05;1741093;82;21382;-68
2021/05/16 08:00:44;;;;;;;4.20;2.80;;;;;;;12.99;75.65;99445.02;1707189;82;21095;-67
2021/05/16 08:03:10;;;;;;;7.58;4.17;;;;;;;13.07;75.59;99446.15;1725013;82;21625;-67
2021/05/16 08:05:36;;;;;;;5.80;3.45;;;;;;;13.18;75.54;99456.25;1741177;82;20991;-68
2021/05/16 08:08:02;;;;;;;5.70;3.10;;;;;;;13.29;75.50;99456.95;1741245;82;21764;-67
2021/05/16 08:10:28;;;;;;;4.60;2.85;;;;;;;13.31;75.44;99451.36;1741087;82;21027;-68
2021/05/16 08:12:54;;;;;;;5.83;3.20;;;;;;;13.28;75.38;99451.27;1741114;82;20950;-68
2021/05/16 08:15:22;;;;;;;4.28;3.08;;;;;;;13.34;75.37;99448.26;1739267;82;21101;-68
2021/05/16 08:17:48;;;;;;;4.85;3.65;;;;;;;13.32;75.24;99448.48;1715504;83;21074;-67
2021/05/16 08:20:14;;;;;;;6.28;3.45;;;;;;;13.29;75.20;99451.59;1741039;82;21626;-68
2021/05/16 08:22:40;;;;;;;4.20;3.40;;;;;;;13.35;75.15;99450.73;1739176;82;21090;-68
2021/05/16 08:25:08;;;;;;;5.20;3.47;;;;;;;13.44;75.07;99456.16;1713396;83;21020;-68
2021/05/16 08:27:34;;;;;;;9.10;3.60;;;;;;;13.51;75.02;99458.30;1718762;82;21071;-68
2021/05/16 08:30:00;;;;;;;5.83;3.25;;;;;;;13.60;74.94;99456.73;1728976;82;21009;-68
2021/05/16 08:32:26;;;;;;;4.12;2.83;;;;;;;13.71;74.94;99460.91;1709100;82;21675;-67
2021/05/16 08:34:52;;;;;;;4.22;2.83;;;;;;;13.83;74.81;99453.00;1738977;82;21096;-67
2021/05/16 08:37:18;;;;;;;6.80;2.77;;;;;;;13.88;74.71;99448.66;1713854;83;21596;-68
2021/05/16 08:39:44;;;;;;;8.53;4.78;;;;;;;13.91;74.67;99458.13;1713937;82;20897;-68
2021/05/16 08:42:11;;;;;;;10.58;6.97;;;;;;;14.01;74.59;99459.81;1713789;83;21048;-68
2021/05/16 08:44:37;;;;;;;4.75;3.37;;;;;;;14.03;74.48;99461.78;1713862;83;21099;-68
2021/05/16 08:47:03;;;;;;;11.75;8.18;;;;;;;14.06;74.34;99465.89;1713495;83;20977;-68
2021/05/16 08:49:30;;;;;;;7.37;4.53;;;;;;;14.05;74.26;99462.38;1744180;81;21590;-68
2021/05/16 08:51:56;;;;;;;5.58;3.83;;;;;;;14.12;74.20;99471.20;1740011;82;21037;-68
2021/05/16 08:54:23;;;;;;;5.95;2.87;;;;;;;14.15;74.13;99462.73;1740643;80;21743;-68
2021/05/16 08:56:50;;;;;;;7.28;3.25;;;;;;;14.04;74.00;99467.97;1742575;82;21607;-67
2021/05/16 08:59:16;;;;;;;5.15;3.60;;;;;;;13.95;73.96;99464.70;1736817;82;21101;-68
2021/05/16 09:01:50;;;;;;;9.18;4.53;;;;;;;13.85;73.87;99466.52;1727297;82;20915;-68
2021/05/16 09:04:35;;;;;;;8.00;5.47;;;;;;;13.91;73.82;99471.02;1688873;83;21084;-68
2021/05/16 09:07:02;;;;;;;3.85;2.80;;;;;;;14.09;73.71;99468.95;1729531;82;21577;-68
2021/05/16 09:09:33;;;;;;;5.30;3.40;;;;;;;14.07;73.59;99479.09;1713286;83;21752;-68
2021/05/16 09:12:08;;;;;;;5.97;3.83;;;;;;;14.06;73.52;99473.93;1695772;84;21623;-68
2021/05/16 09:14:46;;;;;;;5.37;3.72;;;;;;;14.16;73.50;99479.12;1713055;83;21657;-68
2021/05/16 09:17:33;;;;;;;5.45;2.67;;;;;;;14.30;73.40;99476.67;1728825;82;21096;-68
2021/05/16 09:20:08;;;;;;;3.98;2.95;;;;;;;14.40;73.35;99473.53;1750477;80;21043;-68
2021/05/16 09:22:45;;;;;;;3.83;2.72;;;;;;;14.36;73.27;99486.55;1715652;82;21114;-68
2021/05/16 09:25:32;;;;;;;4.53;2.70;;;;;;;14.27;73.21;99485.66;1732721;82;21572;-68
2021/05/16 09:28:13;;;;;;;3.45;3.15;;;;;;;14.20;73.16;99484.37;1736924;82;21040;-68
2021/05/16 09:30:40;;;;;;;5.30;3.52;;;;;;;14.32;73.13;99483.97;1736796;82;21536;-68
2021/05/16 09:33:14;;;;;;;3.95;2.60;;;;;;;14.46;73.05;99482.87;1736871;82;21575;-68
2021/05/16 09:35:50;;;;;;;10.43;5.28;;;;;;;14.59;72.94;99483.82;1723979;82;21099;-68
2021/05/16 09:38:20;;;;;;;6.12;3.42;;;;;;;14.67;72.86;99485.70;1736679;82;21092;-68
2021/05/16 09:40:51;;;;;;;12.05;6.17;;;;;;;14.75;72.77;99488.13;1736638;82;21572;-68
2021/05/16 09:43:30;;;;;;;5.25;4.20;;;;;;;14.75;72.71;99491.32;1729235;82;21026;-68
2021/05/16 09:46:01;;;;;;;9.05;4.85;;;;;;;14.75;72.65;99488.64;1723215;82;21062;-68
2021/05/16 09:48:33;;;;;;;4.12;3.12;;;;;;;14.73;72.62;99494.24;1757430;81;21832;-68
2021/05/16 09:51:10;;;;;;;34.80;14.93;;;;;;;14.77;72.48;99490.59;1741796;81;21049;-68
2021/05/16 09:54:01;;;;;;;6.83;3.92;;;;;;;14.79;72.42;99492.53;1732846;82;21038;-68
2021/05/16 09:56:31;;;;;;;2.77;1.87;;;;;;;14.80;72.42;99490.16;1720896;82;21013;-68
2021/05/16 09:59:00;;;;;;;8.63;3.40;;;;;;;14.80;72.32;99492.33;1708964;82;21049;-68
2021/05/16 10:01:27;;;;;;;6.60;4.20;;;;;;;14.88;72.27;99492.58;1711727;82;21086;-68
2021/05/16 10:03:56;;;;;;;6.12;4.00;;;;;;;14.99;72.10;99492.66;1735596;82;21066;-68
2021/05/16 10:06:22;;;;;;;;;;;;;;;15.10;72.14;99487.60;1714795;82;21549;-68
2021/05/16 10:08:49;;;;;;;4.33;3.10;;;;;;;15.32;72.03;99490.17;1734716;82;20566;-68
2021/05/16 10:11:20;;;;;;;2.85;2.15;;;;;;;15.32;72.03;99490.17;1736175;82;21039;-68
2021/05/16 10:14:05;;;;;;;2.92;2.40;;;;;;;15.56;71.80;99493.87;1732727;82;21241;-68
2021/05/16 10:16:41;;;;;;;5.80;2.90;;;;;;;15.83;71.60;99489.29;1720135;82;21541;-68
2021/05/16 10:19:11;;;;;;;5.08;2.37;;;;;;;15.88;71.45;99488.63;1721561;82;21018;-68
2021/05/16 10:21:37;;;;;;;14.75;3.42;;;;;;;16.05;71.20;99478.88;1727494;82;21066;-69
2021/05/16 10:24:14;;;;;;;5.40;2.15;;;;;;;16.13;71.05;99483.95;1727924;82;21506;-68
2021/05/16 10:26:41;;;;;;;3.25;1.95;;;;;;;16.21;70.78;99482.29;1723165;82;21180;-68
2021/05/16 10:29:14;;;;;;;3.45;2.00;;;;;;;16.28;70.71;99481.67;1726586;82;21033;-68
2021/05/16 10:31:47;;;;;;;5.87;3.55;;;;;;;16.33;70.56;99477.75;1729980;82;21546;-68
2021/05/16 10:34:35;;;;;;;4.00;2.55;;;;;;;16.40;70.32;99478.99;1729885;82;21018;-69
2021/05/16 10:37:02;;;;;;;3.02;2.10;;;;;;;16.58;70.08;99474.09;1722480;82;21604;-68
2021/05/16 10:39:50;;;;;;;3.77;1.60;;;;;;;16.66;69.63;99468.38;1721959;82;21117;-69
2021/05/16 10:42:25;;;;;;;3.08;1.10;;;;;;;16.94;69.43;99466.66;1726034;82;21061;-68
2021/05/16 10:45:15;;;;;;;2.10;1.30;;;;;;;17.09;68.99;99472.93;1726181;82;21026;-68
2021/05/16 10:50:25;;;;;;;5.20;1.80;;;;;;;16.74;68.26;99472.91;1722167;82;21032;-69
2021/05/16 10:52:57;;;;;;;;;;;;;;;16.59;67.93;99463.62;1728054;82;21571;-68
2021/05/16 10:55:35;;;;;;;5.08;2.65;;;;;;;16.89;67.98;99463.83;1722360;82;20279;-69
2021/05/16 10:58:02;;;;;;;4.45;1.80;;;;;;;17.25;67.61;99456.03;1698236;82;21608;-69
2021/05/16 11:00:34;;;;;;;3.75;1.67;;;;;;;17.58;67.23;99455.44;1726796;82;21021;-69
2021/05/16 11:03:11;;;;;;;2.37;1.42;;;;;;;17.46;66.84;99456.77;1725219;82;21057;-68
2021/05/16 11:05:53;;;;;;;2.40;1.30;;;;;;;17.53;66.83;99447.72;1718717;81;21081;-69
2021/05/16 11:08:28;;;;;;;3.30;1.20;;;;;;;17.72;66.53;99447.36;1727844;82;21542;-69
2021/05/16 11:10:55;;;;;;;8.88;3.02;;;;;;;17.74;66.19;99444.41;1727310;82;21066;-69
2021/05/16 11:13:29;;;;;;;5.62;1.30;;;;;;;18.06;66.10;99436.66;1730975;82;21050;-69
2021/05/16 11:16:05;;;;;;;7.08;1.87;;;;;;;18.33;65.72;99435.81;1721331;82;21037;-68
2021/05/16 11:18:32;;;;;;;2.77;1.00;;;;;;;18.39;65.21;99426.76;1722928;82;21827;-69
2021/05/16 11:21:00;;;;;;;2.95;1.20;;;;;;;18.44;64.55;99421.42;1719894;82;21040;-68
2021/05/16 11:23:31;;;;;;;3.72;2.02;;;;;;;18.33;64.15;99426.36;1715683;83;21046;-68
2021/05/16 11:26:02;;;;;;;1.32;0.90;;;;;;;18.07;63.76;99429.69;1715608;83;21050;-68
2021/05/16 11:28:34;;;;;;;1.05;0.93;;;;;;;18.19;63.72;99420.19;1674977;84;21064;-69
2021/05/16 11:31:00;;;;;;;1.32;0.80;;;;;;;18.31;63.21;99420.92;1696141;83;21111;-69
2021/05/16 11:33:29;;;;;;;2.70;0.90;;;;;;;18.38;63.06;99422.41;1648369;85;21044;-68
2021/05/16 11:35:55;;;;;;;2.83;1.10;;;;;;;18.34;62.75;99419.91;1705390;82;21710;-69
2021/05/16 11:38:29;;;;;;;3.02;2.55;;;;;;;18.15;62.09;99419.03;1681676;84;21096;-68